createdAt,value
2022-08-03T00:00:30.974Z,993.13
2022-08-03T00:01:30.964Z,993.16
2022-08-03T00:02:30.941Z,993.12
2022-08-03T00:03:32.090Z,993.11
2022-08-03T00:04:34.012Z,993.11
2022-08-03T00:05:30.946Z,993.12
2022-08-03T00:06:36.519Z,993.16
2022-08-03T00:07:31.919Z,993.13
2022-08-03T00:08:30.911Z,993.09
2022-08-03T00:09:35.534Z,993.13
2022-08-03T00:10:31.966Z,993.12
2022-08-03T00:11:30.878Z,993.03
2022-08-03T00:12:30.882Z,993.09
2022-08-03T00:13:30.888Z,993.12
2022-08-03T00:14:30.871Z,993.06
2022-08-03T00:15:30.955Z,993.09
2022-08-03T00:16:30.871Z,993.13
2022-08-03T00:17:30.849Z,993.11
2022-08-03T00:18:31.838Z,993.12
2022-08-03T00:19:30.825Z,993.09
2022-08-03T00:20:30.826Z,993.05
2022-08-03T00:21:30.868Z,993.13
2022-08-03T00:22:30.812Z,993.09
2022-08-03T00:23:51.804Z,993.07
2022-08-03T00:24:31.800Z,993.00
2022-08-03T00:25:30.825Z,993.08
2022-08-03T00:26:30.844Z,992.99
2022-08-03T00:27:32.574Z,993.05
2022-08-03T00:28:30.758Z,993.10
2022-08-03T00:29:30.759Z,993.07
2022-08-03T00:30:31.019Z,993.10
2022-08-03T00:31:52.279Z,993.13
2022-08-03T00:32:31.780Z,993.12
2022-08-03T00:33:30.721Z,993.12
2022-08-03T00:34:57.893Z,993.12
2022-08-03T00:35:49.245Z,993.13
2022-08-03T00:36:31.706Z,993.10
2022-08-03T00:37:40.711Z,993.11
2022-08-03T00:38:31.688Z,993.09
2022-08-03T00:39:30.679Z,993.09
2022-08-03T00:40:30.682Z,993.05
2022-08-03T00:41:31.665Z,993.00
2022-08-03T00:42:30.698Z,993.01
2022-08-03T00:43:30.796Z,993.02
2022-08-03T00:44:30.647Z,993.04
2022-08-03T00:45:30.660Z,993.09
2022-08-03T00:46:30.628Z,993.04
2022-08-03T00:47:30.657Z,993.11
2022-08-03T00:48:33.383Z,992.99
2022-08-03T00:49:30.675Z,993.06
2022-08-03T00:50:30.601Z,993.05
2022-08-03T00:51:30.652Z,993.05
2022-08-03T00:52:30.717Z,993.07
2022-08-03T00:53:30.609Z,993.03
2022-08-03T00:54:30.635Z,992.92
2022-08-03T00:55:30.548Z,993.02
2022-08-03T00:56:30.570Z,993.10
2022-08-03T00:57:30.561Z,993.01
2022-08-03T00:58:30.546Z,993.02
2022-08-03T00:59:30.581Z,993.03
2022-08-03T01:00:30.529Z,993.05
2022-08-03T01:01:32.396Z,993.06
2022-08-03T01:02:30.521Z,993.06
2022-08-03T01:03:30.519Z,993.05
2022-08-03T01:04:30.525Z,993.07
2022-08-03T01:05:30.546Z,993.10
2022-08-03T01:06:30.489Z,993.13
2022-08-03T01:07:30.484Z,993.10
2022-08-03T01:08:30.478Z,993.05
2022-08-03T01:09:30.464Z,993.01
2022-08-03T01:10:31.671Z,993.08
2022-08-03T01:11:30.452Z,993.07
2022-08-03T01:12:30.444Z,993.05
2022-08-03T01:14:01.175Z,993.07
2022-08-03T01:14:31.425Z,993.00
2022-08-03T01:15:30.466Z,993.05
2022-08-03T01:16:36.516Z,993.05
2022-08-03T01:17:31.409Z,993.01
2022-08-03T01:18:30.396Z,993.00
2022-08-03T01:19:30.390Z,993.05
2022-08-03T01:20:30.408Z,993.07
2022-08-03T01:21:30.429Z,993.05
2022-08-03T01:22:30.363Z,993.02
2022-08-03T01:23:30.375Z,993.06
2022-08-03T01:24:30.360Z,993.12
2022-08-03T01:25:30.365Z,993.09
2022-08-03T01:26:30.341Z,993.07
2022-08-03T01:27:30.392Z,993.05
2022-08-03T01:28:30.327Z,993.04
2022-08-03T01:29:30.330Z,993.09
2022-08-03T01:30:30.345Z,993.07
2022-08-03T01:31:30.309Z,993.08
2022-08-03T01:33:00.126Z,993.07
2022-08-03T01:33:31.303Z,993.04
2022-08-03T01:34:30.293Z,993.10
2022-08-03T01:35:30.294Z,993.11
2022-08-03T01:36:30.279Z,993.05
2022-08-03T01:37:30.269Z,993.02
2022-08-03T01:38:30.304Z,993.04
2022-08-03T01:39:30.259Z,993.03
2022-08-03T01:40:30.270Z,993.04
2022-08-03T01:41:30.241Z,993.04
2022-08-03T01:42:30.256Z,993.01
2022-08-03T01:43:55.405Z,993.03
2022-08-03T01:44:31.301Z,992.95
2022-08-03T01:45:34.242Z,992.98
2022-08-03T01:46:30.202Z,992.97
2022-08-03T01:47:30.197Z,992.99
2022-08-03T01:48:30.187Z,992.92
2022-08-03T01:49:30.292Z,992.97
2022-08-03T01:50:30.184Z,993.03
2022-08-03T01:51:57.722Z,993.02
2022-08-03T01:52:31.154Z,992.98
2022-08-03T01:53:30.169Z,992.92
2022-08-03T01:54:30.194Z,993.01
2022-08-03T01:55:30.135Z,993.06
2022-08-03T01:56:30.136Z,992.96
2022-08-03T01:57:30.122Z,992.92
2022-08-03T01:58:30.106Z,992.97
2022-08-03T01:59:30.110Z,992.97
2022-08-03T02:00:30.174Z,993.00
2022-08-03T02:02:28.106Z,992.99
2022-08-03T02:02:34.166Z,992.99
2022-08-03T02:03:30.077Z,992.97
2022-08-03T02:04:30.091Z,992.95
2022-08-03T02:05:30.171Z,992.94
2022-08-03T02:07:00.623Z,992.97
2022-08-03T02:07:31.071Z,992.95
2022-08-03T02:08:30.050Z,992.94
2022-08-03T02:09:30.043Z,992.97
2022-08-03T02:10:34.850Z,992.98
2022-08-03T02:11:31.078Z,993.00
2022-08-03T02:12:31.019Z,993.00
2022-08-03T02:13:30.012Z,993.04
2022-08-03T02:14:30.001Z,993.04
2022-08-03T02:15:30.021Z,992.94
2022-08-03T02:16:30.073Z,992.94
2022-08-03T02:17:39.160Z,992.98
2022-08-03T02:18:29.974Z,992.96
2022-08-03T02:19:35.279Z,992.93
2022-08-03T02:20:31.972Z,992.98
2022-08-03T02:21:55.646Z,992.97
2022-08-03T02:22:31.000Z,992.94
2022-08-03T02:23:29.967Z,992.99
2022-08-03T02:24:29.939Z,992.97
2022-08-03T02:25:29.949Z,993.00
2022-08-03T02:26:29.920Z,992.97
2022-08-03T02:27:29.968Z,993.02
2022-08-03T02:28:29.912Z,993.00
2022-08-03T02:29:39.299Z,992.95
2022-08-03T02:30:30.890Z,992.99
2022-08-03T02:31:29.889Z,992.97
2022-08-03T02:32:29.897Z,992.97
2022-08-03T02:33:29.948Z,993.01
2022-08-03T02:34:29.865Z,992.90
2022-08-03T02:35:29.863Z,992.93
2022-08-03T02:36:29.862Z,992.91
2022-08-03T02:37:29.843Z,992.88
2022-08-03T02:38:29.881Z,992.91
2022-08-03T02:39:29.856Z,992.91
2022-08-03T02:40:29.818Z,992.91
2022-08-03T02:41:29.808Z,992.87
2022-08-03T02:42:29.807Z,992.93
2022-08-03T02:43:29.825Z,992.91
2022-08-03T02:44:30.855Z,992.85
2022-08-03T02:45:29.795Z,992.92
2022-08-03T02:46:29.779Z,992.84
2022-08-03T02:47:54.082Z,992.88
2022-08-03T02:48:30.763Z,992.89
2022-08-03T02:49:40.623Z,992.84
2022-08-03T02:50:30.747Z,992.81
2022-08-03T02:51:29.739Z,992.76
2022-08-03T02:52:29.783Z,992.80
2022-08-03T02:53:29.739Z,992.82
2022-08-03T02:54:29.763Z,992.78
2022-08-03T02:55:29.767Z,992.83
2022-08-03T02:56:29.722Z,992.86
2022-08-03T02:57:29.685Z,992.82
2022-08-03T02:58:29.683Z,992.85
2022-08-03T02:59:29.677Z,992.85
2022-08-03T03:00:29.753Z,992.82
2022-08-03T03:01:29.808Z,992.81
2022-08-03T03:02:29.662Z,992.92
2022-08-03T03:03:29.812Z,992.79
2022-08-03T03:04:32.994Z,992.74
2022-08-03T03:05:55.932Z,992.82
2022-08-03T03:06:30.670Z,992.75
2022-08-03T03:07:29.620Z,992.78
2022-08-03T03:08:29.613Z,992.80
2022-08-03T03:09:40.248Z,992.73
2022-08-03T03:10:30.629Z,992.81
2022-08-03T03:11:29.657Z,992.72
2022-08-03T03:12:29.582Z,992.81
2022-08-03T03:13:29.583Z,992.78
2022-08-03T03:14:33.971Z,992.83
2022-08-03T03:15:29.574Z,992.75
2022-08-03T03:16:29.557Z,992.79
2022-08-03T03:17:29.667Z,992.73
2022-08-03T03:18:29.561Z,992.81
2022-08-03T03:19:29.544Z,992.82
2022-08-03T03:20:30.613Z,992.73
2022-08-03T03:21:29.593Z,992.70
2022-08-03T03:22:29.563Z,992.77
2022-08-03T03:23:29.504Z,992.79
2022-08-03T03:24:29.502Z,992.80
2022-08-03T03:25:29.501Z,992.76
2022-08-03T03:26:29.494Z,992.91
2022-08-03T03:27:29.470Z,992.87
2022-08-03T03:28:29.515Z,992.81
2022-08-03T03:29:29.459Z,992.86
2022-08-03T03:30:29.457Z,992.80
2022-08-03T03:31:29.431Z,992.84
2022-08-03T03:32:29.446Z,992.85
2022-08-03T03:33:29.485Z,992.86
2022-08-03T03:34:29.481Z,992.85
2022-08-03T03:35:29.431Z,992.87
2022-08-03T03:36:29.414Z,992.84
2022-08-03T03:37:29.465Z,992.89
2022-08-03T03:38:29.400Z,992.91
2022-08-03T03:39:29.447Z,992.89
2022-08-03T03:40:29.375Z,992.89
2022-08-03T03:41:29.368Z,992.88
2022-08-03T03:42:29.366Z,992.92
2022-08-03T03:43:29.399Z,992.89
2022-08-03T03:44:29.401Z,992.87
2022-08-03T03:45:29.354Z,992.92
2022-08-03T03:46:29.360Z,992.96
2022-08-03T03:47:32.576Z,992.97
2022-08-03T03:48:29.319Z,992.99
2022-08-03T03:49:29.350Z,992.96
2022-08-03T03:50:29.384Z,992.94
2022-08-03T03:51:29.318Z,993.00
2022-08-03T03:52:29.321Z,992.97
2022-08-03T03:53:29.292Z,992.95
2022-08-03T03:54:29.320Z,992.94
2022-08-03T03:55:29.333Z,992.94
2022-08-03T03:56:29.283Z,992.96
2022-08-03T03:57:29.338Z,992.95
2022-08-03T03:58:29.258Z,992.97
2022-08-03T03:59:29.372Z,992.95
2022-08-03T04:00:29.289Z,992.96
2022-08-03T04:01:29.262Z,992.97
2022-08-03T04:02:29.248Z,992.95
2022-08-03T04:03:29.242Z,992.96
2022-08-03T04:04:29.301Z,992.94
2022-08-03T04:05:29.225Z,992.96
2022-08-03T04:06:29.264Z,992.99
2022-08-03T04:07:29.176Z,992.99
2022-08-03T04:08:29.183Z,993.01
2022-08-03T04:09:29.271Z,993.01
2022-08-03T04:10:29.166Z,992.97
2022-08-03T04:11:30.271Z,993.00
2022-08-03T04:12:29.213Z,992.97
2022-08-03T04:13:29.141Z,993.01
2022-08-03T04:14:29.192Z,993.03
2022-08-03T04:15:29.137Z,993.02
2022-08-03T04:16:29.123Z,993.06
2022-08-03T04:17:29.205Z,993.08
2022-08-03T04:18:29.892Z,993.05
2022-08-03T04:19:29.220Z,993.02
2022-08-03T04:20:29.124Z,993.02
2022-08-03T04:21:29.076Z,993.04
2022-08-03T04:22:29.105Z,993.02
2022-08-03T04:23:29.118Z,993.06
2022-08-03T04:24:29.085Z,993.10
2022-08-03T04:25:29.091Z,993.09
2022-08-03T04:26:29.054Z,993.02
2022-08-03T04:27:29.035Z,993.06
2022-08-03T04:28:31.217Z,993.01
2022-08-03T04:29:29.070Z,993.05
2022-08-03T04:30:29.051Z,993.02
2022-08-03T04:31:29.018Z,993.02
2022-08-03T04:32:29.023Z,993.05
2022-08-03T04:33:29.673Z,993.09
2022-08-03T04:34:29.064Z,993.07
2022-08-03T04:36:02.322Z,993.05
2022-08-03T04:36:29.986Z,993.12
2022-08-03T04:37:28.969Z,993.14
2022-08-03T04:38:28.969Z,993.09
2022-08-03T04:39:29.000Z,993.15
2022-08-03T04:40:29.736Z,993.12
2022-08-03T04:41:28.944Z,993.12
2022-08-03T04:42:28.956Z,993.15
2022-08-03T04:43:28.927Z,993.11
2022-08-03T04:44:28.952Z,993.10
2022-08-03T04:45:28.997Z,993.13
2022-08-03T04:46:28.922Z,993.17
2022-08-03T04:47:28.891Z,993.14
2022-08-03T04:48:28.893Z,993.21
2022-08-03T04:49:28.973Z,993.18
2022-08-03T04:50:28.945Z,993.16
2022-08-03T04:51:28.865Z,993.18
2022-08-03T04:52:28.872Z,993.18
2022-08-03T04:53:28.852Z,993.19
2022-08-03T04:54:28.851Z,993.21
2022-08-03T04:55:28.842Z,993.15
2022-08-03T04:56:28.891Z,993.13
2022-08-03T04:57:28.824Z,993.14
2022-08-03T04:58:28.831Z,993.17
2022-08-03T04:59:28.840Z,993.13
2022-08-03T05:00:28.823Z,993.20
2022-08-03T05:01:28.950Z,993.17
2022-08-03T05:02:28.795Z,993.13
2022-08-03T05:03:28.782Z,993.12
2022-08-03T05:04:28.770Z,993.11
2022-08-03T05:05:48.848Z,993.11
2022-08-03T05:06:29.781Z,993.17
2022-08-03T05:07:35.498Z,993.13
2022-08-03T05:08:29.754Z,993.12
2022-08-03T05:09:52.599Z,993.22
2022-08-03T05:10:29.778Z,993.18
2022-08-03T05:11:28.728Z,993.15
2022-08-03T05:12:32.561Z,993.14
2022-08-03T05:13:29.714Z,993.19
2022-08-03T05:14:28.695Z,993.19
2022-08-03T05:15:28.717Z,993.16
2022-08-03T05:16:28.681Z,993.16
2022-08-03T05:17:28.686Z,993.14
2022-08-03T05:18:28.675Z,993.15
2022-08-03T05:19:28.658Z,993.16
2022-08-03T05:20:28.737Z,993.17
2022-08-03T05:21:41.657Z,993.17
2022-08-03T05:22:29.638Z,993.08
2022-08-03T05:23:28.682Z,993.13
2022-08-03T05:24:28.635Z,993.15
2022-08-03T05:25:28.662Z,993.18
2022-08-03T05:26:28.746Z,993.18
2022-08-03T05:27:28.632Z,993.13
2022-08-03T05:28:28.599Z,993.18
2022-08-03T05:29:28.628Z,993.12
2022-08-03T05:30:34.161Z,993.19
2022-08-03T05:31:29.580Z,993.12
2022-08-03T05:32:28.577Z,993.18
2022-08-03T05:33:28.574Z,993.16
2022-08-03T05:34:28.568Z,993.11
2022-08-03T05:35:57.557Z,993.15
2022-08-03T05:36:29.574Z,993.12
2022-08-03T05:37:28.570Z,993.16
2022-08-03T05:38:33.971Z,993.18
2022-08-03T05:39:29.529Z,993.16
2022-08-03T05:40:29.529Z,993.09
2022-08-03T05:41:37.294Z,993.12
2022-08-03T05:42:28.530Z,993.12
2022-08-03T05:43:28.503Z,993.14
2022-08-03T05:44:28.508Z,993.09
2022-08-03T05:45:28.860Z,993.10
2022-08-03T05:46:29.520Z,993.14
2022-08-03T05:47:28.488Z,993.12
2022-08-03T05:48:28.476Z,993.18
2022-08-03T05:49:28.593Z,993.18
2022-08-03T05:50:28.457Z,993.17
2022-08-03T05:51:28.496Z,993.25
2022-08-03T05:52:28.460Z,993.17
2022-08-03T05:53:28.435Z,993.12
2022-08-03T05:54:55.517Z,993.14
2022-08-03T05:55:29.421Z,993.17
2022-08-03T05:56:28.488Z,993.08
2022-08-03T05:57:28.401Z,993.13
2022-08-03T05:58:29.948Z,993.07
2022-08-03T05:59:38.194Z,993.18
2022-08-03T06:00:30.385Z,993.12
2022-08-03T06:01:28.408Z,993.19
2022-08-03T06:02:28.410Z,993.20
2022-08-03T06:03:28.366Z,993.13
2022-08-03T06:04:28.376Z,993.14
2022-08-03T06:05:28.338Z,993.17
2022-08-03T06:06:32.207Z,993.20
2022-08-03T06:07:29.617Z,993.17
2022-08-03T06:08:28.318Z,993.21
2022-08-03T06:09:31.837Z,993.22
2022-08-03T06:10:36.753Z,993.20
2022-08-03T06:11:29.296Z,993.23
2022-08-03T06:12:28.363Z,993.23
2022-08-03T06:13:28.275Z,993.27
2022-08-03T06:14:28.299Z,993.24
2022-08-03T06:15:28.277Z,993.20
2022-08-03T06:16:28.356Z,993.20
2022-08-03T06:17:28.344Z,993.27
2022-08-03T06:18:29.241Z,993.21
2022-08-03T06:19:28.252Z,993.19
2022-08-03T06:20:28.230Z,993.23
2022-08-03T06:21:28.215Z,993.26
2022-08-03T06:22:28.213Z,993.28
2022-08-03T06:23:54.157Z,993.26
2022-08-03T06:24:30.194Z,993.30
2022-08-03T06:25:28.187Z,993.31
2022-08-03T06:26:28.316Z,993.31
2022-08-03T06:27:36.822Z,993.32
2022-08-03T06:28:53.054Z,993.31
2022-08-03T06:29:30.147Z,993.30
2022-08-03T06:30:28.152Z,993.36
2022-08-03T06:31:32.885Z,993.29
2022-08-03T06:32:29.134Z,993.29
2022-08-03T06:34:31.296Z,993.32
2022-08-03T06:34:34.902Z,993.33
2022-08-03T06:35:29.130Z,993.31
2022-08-03T06:36:28.108Z,993.26
2022-08-03T06:37:28.113Z,993.24
2022-08-03T06:38:28.140Z,993.29
2022-08-03T06:39:28.101Z,993.30
2022-08-03T06:40:28.079Z,993.29
2022-08-03T06:41:28.091Z,993.29
2022-08-03T06:42:28.102Z,993.24
2022-08-03T06:43:28.115Z,993.21
2022-08-03T06:44:29.048Z,993.24
2022-08-03T06:45:31.741Z,993.17
2022-08-03T06:46:28.036Z,993.19
2022-08-03T06:47:28.045Z,993.18
2022-08-03T06:48:28.054Z,993.18
2022-08-03T06:49:28.113Z,993.18
2022-08-03T06:50:28.115Z,993.21
2022-08-03T06:52:05.802Z,993.19
2022-08-03T06:52:37.544Z,993.16
2022-08-03T06:53:27.991Z,993.19
2022-08-03T06:54:27.992Z,993.21
2022-08-03T06:55:28.148Z,993.19
2022-08-03T06:56:27.965Z,993.15
2022-08-03T06:57:27.953Z,993.19
2022-08-03T06:58:27.943Z,993.12
2022-08-03T07:00:10.023Z,993.14
2022-08-03T07:00:28.930Z,993.22
2022-08-03T07:01:27.984Z,993.19
2022-08-03T07:02:28.410Z,993.20
2022-08-03T07:03:27.913Z,993.24
2022-08-03T07:04:27.948Z,993.28
2022-08-03T07:05:27.925Z,993.19
2022-08-03T07:06:27.907Z,993.20
2022-08-03T07:07:27.878Z,993.28
2022-08-03T07:08:33.631Z,993.22
2022-08-03T07:09:27.963Z,993.23
2022-08-03T07:10:27.896Z,993.19
2022-08-03T07:11:27.855Z,993.18
2022-08-03T07:12:27.911Z,993.27
2022-08-03T07:13:28.830Z,993.13
2022-08-03T07:14:27.830Z,993.15
2022-08-03T07:15:53.778Z,993.15
2022-08-03T07:16:28.819Z,993.16
2022-08-03T07:17:27.818Z,993.18
2022-08-03T07:18:29.762Z,993.18
2022-08-03T07:19:27.801Z,993.21
2022-08-03T07:20:30.971Z,993.24
2022-08-03T07:21:28.773Z,993.22
2022-08-03T07:22:27.793Z,993.23
2022-08-03T07:23:27.767Z,993.29
2022-08-03T07:24:27.763Z,993.27
2022-08-03T07:25:27.744Z,993.22
2022-08-03T07:26:27.821Z,993.19
2022-08-03T07:27:27.743Z,993.27
2022-08-03T07:28:27.722Z,993.21
2022-08-03T07:29:27.721Z,993.23
2022-08-03T07:30:27.723Z,993.20
2022-08-03T07:31:27.802Z,993.25
2022-08-03T07:32:28.695Z,993.21
2022-08-03T07:33:27.693Z,993.24
2022-08-03T07:34:27.682Z,993.19
2022-08-03T07:35:27.686Z,993.14
2022-08-03T07:36:27.682Z,993.15
2022-08-03T07:37:27.714Z,993.22
2022-08-03T07:38:27.661Z,993.17
2022-08-03T07:39:27.659Z,993.13
2022-08-03T07:40:31.718Z,993.19
2022-08-03T07:41:27.625Z,993.19
2022-08-03T07:42:27.697Z,993.12
2022-08-03T07:43:27.620Z,993.14
2022-08-03T07:44:27.624Z,993.11
2022-08-03T07:45:27.612Z,993.11
2022-08-03T07:46:27.607Z,993.13
2022-08-03T07:47:35.673Z,993.13
2022-08-03T07:48:28.647Z,993.17
2022-08-03T07:49:27.641Z,993.21
2022-08-03T07:50:27.583Z,993.15
2022-08-03T07:51:27.570Z,993.13
2022-08-03T07:52:28.527Z,993.11
2022-08-03T07:53:28.602Z,993.10
2022-08-03T07:54:27.543Z,993.08
2022-08-03T07:55:27.540Z,993.03
2022-08-03T07:56:27.536Z,993.07
2022-08-03T07:57:27.528Z,993.02
2022-08-03T07:58:27.573Z,993.05
2022-08-03T07:59:27.514Z,993.08
2022-08-03T08:00:27.505Z,993.09
2022-08-03T08:01:27.607Z,993.10
2022-08-03T08:02:28.319Z,993.03
2022-08-03T08:03:27.491Z,993.05
2022-08-03T08:04:28.616Z,993.02
2022-08-03T08:05:27.469Z,993.03
2022-08-03T08:06:27.474Z,993.05
2022-08-03T08:07:27.455Z,993.03
2022-08-03T08:08:27.449Z,993.04
2022-08-03T08:09:27.548Z,993.05
2022-08-03T08:10:27.440Z,992.98
2022-08-03T08:11:27.431Z,993.03
2022-08-03T08:12:27.469Z,992.98
2022-08-03T08:13:27.419Z,993.00
2022-08-03T08:14:27.420Z,993.03
2022-08-03T08:15:28.466Z,993.01
2022-08-03T08:16:27.400Z,993.02
2022-08-03T08:17:27.431Z,992.92
2022-08-03T08:18:27.437Z,992.96
2022-08-03T08:19:27.403Z,992.99
2022-08-03T08:20:30.708Z,993.01
2022-08-03T08:21:27.480Z,992.96
2022-08-03T08:22:30.392Z,992.95
2022-08-03T08:23:42.199Z,992.96
2022-08-03T08:24:28.490Z,992.97
2022-08-03T08:25:27.317Z,992.96
2022-08-03T08:26:27.375Z,993.01
2022-08-03T08:27:27.319Z,993.04
2022-08-03T08:28:32.765Z,992.96
2022-08-03T08:29:28.295Z,992.88
2022-08-03T08:30:27.291Z,992.97
2022-08-03T08:31:27.336Z,992.91
2022-08-03T08:32:27.278Z,992.87
2022-08-03T08:33:37.365Z,992.88
2022-08-03T08:34:29.269Z,992.88
2022-08-03T08:35:27.268Z,992.93
2022-08-03T08:36:27.306Z,992.91
2022-08-03T08:37:27.316Z,992.84
2022-08-03T08:38:27.235Z,992.84
2022-08-03T08:39:27.257Z,992.82
2022-08-03T08:40:27.221Z,992.85
2022-08-03T08:41:32.329Z,992.86
2022-08-03T08:42:28.249Z,992.84
2022-08-03T08:43:27.221Z,992.86
2022-08-03T08:44:27.205Z,992.83
2022-08-03T08:45:27.180Z,992.78
2022-08-03T08:46:27.189Z,992.84
2022-08-03T08:47:27.172Z,992.80
2022-08-03T08:48:27.226Z,992.80
2022-08-03T08:49:27.191Z,992.77
2022-08-03T08:50:28.103Z,992.75
2022-08-03T08:51:51.030Z,992.75
2022-08-03T08:52:29.737Z,992.73
2022-08-03T08:53:27.572Z,992.77
2022-08-03T08:54:28.141Z,992.77
2022-08-03T08:55:27.145Z,992.77
2022-08-03T08:56:27.094Z,992.76
2022-08-03T08:57:42.274Z,992.75
2022-08-03T08:58:29.098Z,992.73
2022-08-03T08:59:27.083Z,992.72
2022-08-03T09:00:28.155Z,992.73
2022-08-03T09:01:27.093Z,992.73
2022-08-03T09:02:27.057Z,992.75
2022-08-03T09:03:30.291Z,992.75
2022-08-03T09:04:27.063Z,992.71
2022-08-03T09:05:53.696Z,992.71
2022-08-03T09:06:29.035Z,992.65
2022-08-03T09:07:27.048Z,992.70
2022-08-03T09:08:27.027Z,992.69
2022-08-03T09:09:28.504Z,992.67
2022-08-03T09:10:29.117Z,992.67
2022-08-03T09:11:52.395Z,992.69
2022-08-03T09:12:43.102Z,992.72
2022-08-03T09:13:29.015Z,992.70
2022-08-03T09:14:36.819Z,992.67
2022-08-03T09:15:28.092Z,992.63
2022-08-03T09:16:27.004Z,992.70
2022-08-03T09:17:26.967Z,992.65
2022-08-03T09:18:26.969Z,992.65
2022-08-03T09:19:26.962Z,992.59
2022-08-03T09:20:26.954Z,992.63
2022-08-03T09:21:34.876Z,992.63
2022-08-03T09:22:28.977Z,992.57
2022-08-03T09:23:59.711Z,992.61
2022-08-03T09:24:41.315Z,992.60
2022-08-03T09:25:28.941Z,992.60
2022-08-03T09:26:26.972Z,992.58
2022-08-03T09:27:26.925Z,992.55
2022-08-03T09:28:54.031Z,992.60
2022-08-03T09:29:27.896Z,992.64
2022-08-03T09:30:33.781Z,992.62
2022-08-03T09:31:27.941Z,992.56
2022-08-03T09:32:26.889Z,992.54
2022-08-03T09:33:26.875Z,992.60
2022-08-03T09:34:27.887Z,992.54
2022-08-03T09:35:51.779Z,992.55
2022-08-03T09:36:28.909Z,992.56
2022-08-03T09:38:12.525Z,992.51
2022-08-03T09:38:27.849Z,992.56
2022-08-03T09:39:37.481Z,992.50
2022-08-03T09:40:27.836Z,992.50
2022-08-03T09:41:26.839Z,992.46
2022-08-03T09:42:26.926Z,992.49
2022-08-03T09:43:26.844Z,992.53
2022-08-03T09:44:26.861Z,992.43
2022-08-03T09:45:26.886Z,992.52
2022-08-03T09:46:26.805Z,992.46
2022-08-03T09:47:28.378Z,992.43
2022-08-03T09:48:26.791Z,992.47
2022-08-03T09:49:26.902Z,992.49
2022-08-03T09:50:26.803Z,992.45
2022-08-03T09:52:22.991Z,992.44
2022-08-03T09:52:38.651Z,992.43
2022-08-03T09:53:27.768Z,992.44
2022-08-03T09:54:26.757Z,992.44
2022-08-03T09:56:33.879Z,992.48
2022-08-03T09:56:35.839Z,992.51
2022-08-03T09:57:27.766Z,992.52
2022-08-03T09:58:26.739Z,992.40
2022-08-03T09:59:26.726Z,992.38
2022-08-03T10:00:26.713Z,992.38
2022-08-03T10:01:26.780Z,992.45
2022-08-03T10:02:26.748Z,992.44
2022-08-03T10:03:26.698Z,992.39
2022-08-03T10:04:27.338Z,992.42
2022-08-03T10:05:26.687Z,992.38
2022-08-03T10:06:29.134Z,992.37
2022-08-03T10:07:26.675Z,992.37
2022-08-03T10:08:26.693Z,992.38
2022-08-03T10:09:26.674Z,992.44
2022-08-03T10:10:30.496Z,992.39
2022-08-03T10:11:27.644Z,992.38
2022-08-03T10:12:26.637Z,992.43
2022-08-03T10:13:26.673Z,992.40
2022-08-03T10:14:26.619Z,992.33
2022-08-03T10:16:21.203Z,992.41
2022-08-03T10:16:27.613Z,992.40
2022-08-03T10:17:26.611Z,992.37
2022-08-03T10:18:26.646Z,992.34
2022-08-03T10:19:26.588Z,992.30
2022-08-03T10:20:29.195Z,992.32
2022-08-03T10:21:26.576Z,992.28
2022-08-03T10:22:26.559Z,992.33
2022-08-03T10:23:27.847Z,992.29
2022-08-03T10:24:26.584Z,992.20
2022-08-03T10:25:33.316Z,992.26
2022-08-03T10:26:27.541Z,992.28
2022-08-03T10:27:26.539Z,992.24
2022-08-03T10:28:26.520Z,992.23
2022-08-03T10:29:26.548Z,992.28
2022-08-03T10:30:26.518Z,992.23
2022-08-03T10:31:26.520Z,992.24
2022-08-03T10:32:26.496Z,992.21
2022-08-03T10:33:51.464Z,992.25
2022-08-03T10:34:27.522Z,992.27
2022-08-03T10:35:26.470Z,992.21
2022-08-03T10:36:27.483Z,992.18
2022-08-03T10:37:26.465Z,992.11
2022-08-03T10:38:26.464Z,992.18
2022-08-03T10:39:26.480Z,992.15
2022-08-03T10:40:46.802Z,992.15
2022-08-03T10:41:28.535Z,992.17
2022-08-03T10:42:26.546Z,992.21
2022-08-03T10:43:26.432Z,992.18
2022-08-03T10:44:26.453Z,992.13
2022-08-03T10:45:26.433Z,992.10
2022-08-03T10:46:26.419Z,992.10
2022-08-03T10:47:26.429Z,992.08
2022-08-03T10:48:26.411Z,992.12
2022-08-03T10:49:34.722Z,992.11
2022-08-03T10:50:28.383Z,992.06
2022-08-03T10:51:26.395Z,992.07
2022-08-03T10:52:32.981Z,992.11
2022-08-03T10:53:26.382Z,992.10
2022-08-03T10:54:26.527Z,992.05
2022-08-03T10:55:26.346Z,992.08
2022-08-03T10:56:41.446Z,992.05
2022-08-03T10:57:27.335Z,992.03
2022-08-03T10:58:30.604Z,991.95
2022-08-03T10:59:27.721Z,991.98
2022-08-03T11:00:26.383Z,991.98
2022-08-03T11:01:26.319Z,992.05
2022-08-03T11:02:27.299Z,992.06
2022-08-03T11:03:26.307Z,992.03
2022-08-03T11:04:26.401Z,991.94
2022-08-03T11:05:26.289Z,991.94
2022-08-03T11:06:26.285Z,991.99
2022-08-03T11:07:26.259Z,991.99
2022-08-03T11:08:26.258Z,991.99
2022-08-03T11:09:26.241Z,991.93
2022-08-03T11:10:26.287Z,992.02
2022-08-03T11:11:26.259Z,992.06
2022-08-03T11:12:28.303Z,991.99
2022-08-03T11:13:27.220Z,991.94
2022-08-03T11:14:26.207Z,991.95
2022-08-03T11:15:26.230Z,991.94
2022-08-03T11:16:26.204Z,991.92
2022-08-03T11:17:26.186Z,991.85
2022-08-03T11:18:27.013Z,991.86
2022-08-03T11:19:27.700Z,991.80
2022-08-03T11:20:26.209Z,991.85
2022-08-03T11:21:30.151Z,991.82
2022-08-03T11:22:27.148Z,991.81
2022-08-03T11:24:02.661Z,991.82
2022-08-03T11:24:27.129Z,991.89
2022-08-03T11:25:53.336Z,991.92
2022-08-03T11:26:27.110Z,991.82
2022-08-03T11:27:26.127Z,991.85
2022-08-03T11:28:26.095Z,991.75
2022-08-03T11:29:26.084Z,991.81
2022-08-03T11:30:27.756Z,991.74
2022-08-03T11:31:49.267Z,991.72
2022-08-03T11:32:28.075Z,991.77
2022-08-03T11:33:26.119Z,991.74
2022-08-03T11:34:26.070Z,991.77
2022-08-03T11:35:26.081Z,991.81
2022-08-03T11:36:31.983Z,991.74
2022-08-03T11:37:31.478Z,991.73
2022-08-03T11:38:28.031Z,991.66
2022-08-03T11:39:26.034Z,991.71
2022-08-03T11:40:26.012Z,991.76
2022-08-03T11:41:26.029Z,991.77
2022-08-03T11:42:25.990Z,991.76
2022-08-03T11:43:30.654Z,991.73
2022-08-03T11:44:26.997Z,991.69
2022-08-03T11:45:25.974Z,991.68
2022-08-03T11:46:28.618Z,991.73
2022-08-03T11:47:25.949Z,991.70
2022-08-03T11:48:25.949Z,991.75
2022-08-03T11:49:26.009Z,991.66
2022-08-03T11:50:25.923Z,991.66
2022-08-03T11:51:25.968Z,991.68
2022-08-03T11:52:27.306Z,991.63
2022-08-03T11:53:25.912Z,991.64
2022-08-03T11:54:25.912Z,991.72
2022-08-03T11:55:30.337Z,991.61
2022-08-03T11:56:26.925Z,991.57
2022-08-03T11:58:57.732Z,991.68
2022-08-03T11:59:00.900Z,991.62
2022-08-03T11:59:26.877Z,991.66
2022-08-03T12:00:26.224Z,991.61
2022-08-03T12:01:25.930Z,991.66
2022-08-03T12:02:25.844Z,991.67
2022-08-03T12:03:25.962Z,991.68
2022-08-03T12:04:25.846Z,991.66
2022-08-03T12:05:25.840Z,991.64
2022-08-03T12:06:25.850Z,991.62
2022-08-03T12:08:02.532Z,991.68
2022-08-03T12:08:26.825Z,991.67
2022-08-03T12:09:25.810Z,991.66
2022-08-03T12:10:25.819Z,991.62
2022-08-03T12:11:25.843Z,991.62
2022-08-03T12:12:26.035Z,991.60
2022-08-03T12:14:44.358Z,991.54
2022-08-03T12:14:48.492Z,991.62
2022-08-03T12:15:26.850Z,991.60
2022-08-03T12:16:25.833Z,991.61
2022-08-03T12:17:25.765Z,991.59
2022-08-03T12:18:25.972Z,991.55
2022-08-03T12:19:25.759Z,991.58
2022-08-03T12:20:34.810Z,991.50
2022-08-03T12:21:26.759Z,991.54
2022-08-03T12:22:25.733Z,991.59
2022-08-03T12:23:25.769Z,991.48
2022-08-03T12:24:26.968Z,991.49
2022-08-03T12:25:38.466Z,991.49
2022-08-03T12:26:26.781Z,991.50
2022-08-03T12:27:25.714Z,991.49
2022-08-03T12:28:37.322Z,991.46